Time;durP1;ratioP1;P1;durP2;ratioP2;P2;SDS_P1;SDS_P2;PMS_P1;PMS_P2;Temp;Humidity;BMP_temperature;BMP_pressure;BME280_temperature;BME280_humidity;BME280_pressure;Samples;Min_cycle;Max_cycle;Signal;HPM_P1;HPM_P2
2023/07/10 00:00:18;;;;;;;2.97;0.70;;;;;;;24.72;42.21;101294.31;5074061;28;20107;-45
2023/07/10 00:02:44;;;;;;;2.45;0.90;;;;;;;24.46;41.63;101296.50;5073670;28;20025;-46
2023/07/10 00:05:15;;;;;;;3.08;0.70;;;;;;;24.23;41.97;101294.50;5073779;28;20423;-47
2023/07/10 00:07:42;;;;;;;1.15;0.70;;;;;;;24.41;42.88;101301.19;5073670;28;20517;-45
2023/07/10 00:10:13;;;;;;;2.15;0.80;;;;;;;24.37;43.25;101291.91;5074130;28;20064;-46
2023/07/10 00:12:42;;;;;;;2.55;0.73;;;;;;;24.55;42.62;101298.63;5073632;28;20016;-48
2023/07/10 00:15:34;;;;;;;2.65;0.60;;;;;;;24.59;43.01;101288.69;5073764;28;20043;-45
2023/07/10 00:18:00;;;;;;;1.98;0.60;;;;;;;24.49;42.65;101300.59;5070318;28;20033;-47
2023/07/10 00:20:28;;;;;;;1.92;0.65;;;;;;;24.07;43.88;101303.91;5074054;28;20064;-45
2023/07/10 00:22:54;;;;;;;3.13;0.73;;;;;;;23.88;44.90;101296.41;5073478;28;20039;-45
2023/07/10 00:25:21;;;;;;;2.22;0.70;;;;;;;23.57;45.44;101298.47;5073461;28;20024;-45
2023/07/10 00:27:51;;;;;;;1.80;0.70;;;;;;;23.61;46.43;101304.19;5073779;28;20036;-46
2023/07/10 00:30:25;;;;;;;5.20;1.02;;;;;;;23.50;46.16;101305.34;5073338;28;20027;-45
2023/07/10 00:32:53;;;;;;;2.35;0.82;;;;;;;23.43;46.48;101303.75;5073430;28;20510;-46
2023/07/10 00:35:20;;;;;;;3.60;0.90;;;;;;;23.26;46.51;101297.78;5073432;28;20036;-46
2023/07/10 00:37:49;;;;;;;1.67;0.70;;;;;;;23.29;47.65;101302.69;5073634;28;20024;-45
2023/07/10 00:40:22;;;;;;;1.48;0.80;;;;;;;23.17;47.88;101305.75;5054313;28;20438;-48
2023/07/10 00:42:57;;;;;;;3.17;0.80;;;;;;;23.13;47.58;101309.31;5072740;28;20486;-45
2023/07/10 00:45:24;;;;;;;4.75;1.08;;;;;;;22.98;47.77;101309.38;5073248;28;20452;-48
2023/07/10 00:48:04;;;;;;;4.63;1.00;;;;;;;22.71;49.00;101302.31;5073258;28;20081;-46
2023/07/10 00:50:39;;;;;;;3.00;0.95;;;;;;;22.73;50.27;101308.31;5073358;28;20024;-44
2023/07/10 00:53:18;;;;;;;4.55;1.15;;;;;;;22.59;49.98;101307.22;5072929;28;20036;-48
2023/07/10 00:55:46;;;;;;;2.45;0.88;;;;;;;22.54;50.54;101304.50;5073021;28;20066;-46
2023/07/10 00:58:25;;;;;;;3.10;0.80;;;;;;;22.28;51.40;101295.53;5076103;28;20059;-46
2023/07/10 01:01:11;;;;;;;2.50;0.80;;;;;;;22.31;50.95;101303.16;5080944;28;20040;-44
2023/07/10 01:03:41;;;;;;;4.43;1.27;;;;;;;22.35;50.95;101302.34;5091963;28;20036;-44
2023/07/10 01:06:12;;;;;;;2.20;0.73;;;;;;;22.38;51.03;101298.28;5092757;28;20032;-45
2023/07/10 01:08:41;;;;;;;2.25;0.80;;;;;;;22.27;51.18;101300.19;5085410;28;20397;-45
2023/07/10 01:11:07;;;;;;;2.42;1.00;;;;;;;22.34;50.57;101286.28;5084339;28;20039;-45
2023/07/10 01:13:37;;;;;;;3.38;0.80;;;;;;;22.57;50.52;101295.78;5091562;28;20115;-45
2023/07/10 01:16:05;;;;;;;2.33;0.80;;;;;;;22.67;50.33;101293.03;5091964;28;20032;-47
2023/07/10 01:18:31;;;;;;;1.38;0.82;;;;;;;22.63;49.49;101286.50;5092955;28;20024;-45
2023/07/10 01:21:12;;;;;;;2.38;0.85;;;;;;;22.68;50.00;101278.31;5074621;28;20035;-54
2023/07/10 01:23:39;;;;;;;3.47;0.80;;;;;;;22.58;50.02;101286.50;5084351;28;20079;-45
2023/07/10 01:26:05;;;;;;;2.20;0.90;;;;;;;22.19;51.00;101284.34;5075975;28;20095;-45
2023/07/10 01:28:35;;;;;;;6.72;1.30;;;;;;;22.05;51.67;101283.25;5072032;28;20438;-45
2023/07/10 01:31:08;;;;;;;4.97;0.90;;;;;;;21.85;52.28;101281.31;5072778;28;20385;-45
2023/07/10 01:33:40;;;;;;;3.35;1.67;;;;;;;21.65;52.65;101283.97;5071616;28;20071;-46
2023/07/10 01:36:08;;;;;;;1.63;0.73;;;;;;;21.59;52.81;101272.25;5072442;28;20052;-47
2023/07/10 01:38:43;;;;;;;2.10;1.02;;;;;;;21.36;53.84;101287.19;5071842;28;20028;-48
2023/07/10 01:41:30;;;;;;;3.53;1.10;;;;;;;21.18;54.29;101276.75;5072218;28;20036;-44
2023/07/10 01:43:57;;;;;;;1.75;0.85;;;;;;;21.06;56.09;101274.25;5072332;28;20098;-47
2023/07/10 01:46:26;;;;;;;4.80;0.80;;;;;;;21.09;54.83;101276.41;5072076;28;20082;-45
2023/07/10 01:48:56;;;;;;;3.05;0.90;;;;;;;21.10;54.72;101280.81;5076117;28;20024;-46
2023/07/10 01:51:23;;;;;;;2.85;0.80;;;;;;;20.96;55.01;101277.72;5069678;28;20029;-46
2023/07/10 01:53:50;;;;;;;3.20;0.90;;;;;;;20.87;54.84;101275.75;5071508;28;20203;-44
2023/07/10 01:56:20;;;;;;;2.08;0.95;;;;;;;21.32;54.88;101289.63;5079713;28;20398;-50
2023/07/10 01:58:46;;;;;;;2.17;0.65;;;;;;;21.64;53.81;101291.34;5058683;28;20223;-48
2023/07/10 02:01:13;;;;;;;3.10;0.73;;;;;;;21.57;52.74;101283.44;5071341;28;20074;-48
2023/07/10 02:03:39;;;;;;;2.97;0.80;;;;;;;21.80;52.96;101286.75;5071503;28;20492;-50
2023/07/10 02:06:05;;;;;;;2.60;0.60;;;;;;;21.68;52.90;101288.91;5071644;28;20039;-51
2023/07/10 02:08:31;;;;;;;2.63;0.60;;;;;;;22.11;52.06;101284.91;5071882;28;20051;-47
2023/07/10 02:10:58;;;;;;;2.63;0.75;;;;;;;22.34;50.68;101278.91;5072570;28;20021;-49
2023/07/10 02:13:24;;;;;;;0.98;0.60;;;;;;;22.37;50.96;101289.25;5071060;28;20442;-47
2023/07/10 02:15:51;;;;;;;2.10;0.80;;;;;;;22.37;50.71;101300.16;5072669;28;20034;-46
2023/07/10 02:18:17;;;;;;;3.05;0.98;;;;;;;22.47;50.22;101298.53;5091385;28;20473;-47
2023/07/10 02:20:44;;;;;;;1.77;0.70;;;;;;;22.56;49.67;101300.44;5083166;28;20046;-49
2023/07/10 02:23:10;;;;;;;1.90;0.63;;;;;;;22.50;49.87;101293.34;5082947;28;20051;-46
2023/07/10 02:25:36;;;;;;;2.72;0.75;;;;;;;22.29;50.21;101303.44;5082167;28;20085;-46
2023/07/10 02:28:02;;;;;;;2.33;0.77;;;;;;;22.23;50.85;101299.09;5069904;28;20036;-48
2023/07/10 02:30:29;;;;;;;1.65;0.60;;;;;;;22.36;50.77;101298.53;5071697;28;20067;-47
2023/07/10 02:32:55;;;;;;;1.13;0.65;;;;;;;22.91;49.28;101302.28;5053478;28;20034;-47
2023/07/10 02:35:21;;;;;;;1.38;0.80;;;;;;;23.11;48.16;101287.75;5071827;28;20610;-47
2023/07/10 02:37:47;;;;;;;2.47;0.70;;;;;;;23.31;48.00;101294.22;5071796;28;20032;-48
2023/07/10 02:40:13;;;;;;;2.55;0.70;;;;;;;23.42;47.59;101295.81;5071433;28;20028;-47
2023/07/10 02:42:40;;;;;;;3.22;0.57;;;;;;;23.56;47.12;101294.09;5071600;28;20063;-47
2023/07/10 02:45:06;;;;;;;1.67;0.60;;;;;;;23.37;47.33;101295.84;5071518;28;20035;-47
2023/07/10 02:47:32;;;;;;;2.00;0.63;;;;;;;22.74;48.65;101301.75;5071703;28;20483;-47
2023/07/10 02:49:59;;;;;;;1.00;0.60;;;;;;;22.59;49.85;101297.13;5083688;28;20066;-48
2023/07/10 02:52:25;;;;;;;2.70;0.70;;;;;;;22.62;49.75;101309.44;5091476;28;20070;-49
2023/07/10 02:54:51;;;;;;;1.17;0.50;;;;;;;22.40;49.97;101307.00;5091217;28;20106;-51
2023/07/10 02:57:17;;;;;;;1.83;0.60;;;;;;;22.24;50.70;101311.63;5070087;28;20230;-48
2023/07/10 02:59:44;;;;;;;2.05;0.60;;;;;;;21.78;51.90;101303.38;5071224;28;20197;-47
2023/07/10 03:02:10;;;;;;;1.38;0.70;;;;;;;21.49;52.94;101299.50;5071003;28;20032;-47
2023/07/10 03:04:36;;;;;;;3.00;0.70;;;;;;;21.08;53.72;101297.38;5075488;28;20032;-48
2023/07/10 03:07:06;;;;;;;2.53;0.60;;;;;;;20.59;55.69;101299.53;5095511;28;20133;-47
2023/07/10 03:09:32;;;;;;;3.45;1.00;;;;;;;20.25;57.13;101296.25;5095559;28;20032;-47
2023/07/10 03:11:58;;;;;;;2.08;0.70;;;;;;;19.99;57.51;101297.94;5095061;28;20020;-49
2023/07/10 03:14:25;;;;;;;3.40;0.95;;;;;;;19.83;58.18;101293.44;5095596;28;20526;-47
2023/07/10 03:16:51;;;;;;;1.52;0.80;;;;;;;19.63;59.16;101291.31;5085766;28;20028;-47
2023/07/10 03:19:17;;;;;;;3.50;0.70;;;;;;;19.19;61.07;101294.84;5074961;28;20027;-46
2023/07/10 03:21:43;;;;;;;3.65;0.98;;;;;;;19.07;61.12;101291.44;5073162;28;20020;-46
2023/07/10 03:24:10;;;;;;;4.68;0.63;;;;;;;18.73;62.00;101290.72;5075079;28;20645;-47
2023/07/10 03:26:37;;;;;;;1.35;0.70;;;;;;;18.55;63.18;101280.94;5075196;28;20039;-47
2023/07/10 03:29:11;;;;;;;4.57;1.25;;;;;;;18.36;63.51;101290.38;5074990;28;20025;-47
2023/07/10 03:31:37;;;;;;;1.58;0.50;;;;;;;18.18;64.74;101284.13;5089730;28;20056;-49
2023/07/10 03:34:04;;;;;;;1.98;0.70;;;;;;;17.85;65.83;101281.41;5095078;28;20502;-47
2023/07/10 03:36:30;;;;;;;1.00;0.50;;;;;;;17.99;65.73;101290.88;5094896;28;20031;-47
2023/07/10 03:38:57;;;;;;;2.80;0.70;;;;;;;17.83;66.77;101294.38;5094612;28;20066;-49
2023/07/10 03:41:23;;;;;;;2.75;1.05;;;;;;;17.48;68.31;101289.88;5094486;28;20039;-48
2023/07/10 03:43:50;;;;;;;1.95;0.80;;;;;;;17.45;68.22;101295.78;5094483;28;20027;-52
2023/07/10 03:46:17;;;;;;;2.13;0.80;;;;;;;17.39;68.39;101294.03;5094592;28;20100;-49
2023/07/10 03:48:44;;;;;;;1.15;0.55;;;;;;;17.30;69.00;101301.69;5094634;28;20039;-51
2023/07/10 03:51:11;;;;;;;2.78;0.77;;;;;;;17.15;69.55;101302.19;5094746;28;20115;-51
2023/07/10 03:53:37;;;;;;;1.77;0.65;;;;;;;17.14;69.94;101300.56;5093731;28;20026;-51
2023/07/10 03:56:04;;;;;;;2.50;1.02;;;;;;;17.03;70.09;101298.69;5094680;28;20073;-51
2023/07/10 03:58:32;;;;;;;2.20;0.75;;;;;;;17.01;70.17;101303.53;5094835;28;20056;-51
2023/07/10 04:01:01;;;;;;;1.40;0.85;;;;;;;16.73;71.63;101301.56;5094787;28;20026;-52
2023/07/10 04:03:32;;;;;;;3.40;0.90;;;;;;;16.84;71.34;101299.91;5092165;28;20028;-51
2023/07/10 04:06:00;;;;;;;4.50;0.80;;;;;;;16.76;71.59;101294.84;5086489;28;20024;-49
2023/07/10 04:08:29;;;;;;;2.65;0.73;;;;;;;16.67;72.28;101296.25;5074338;28;20052;-51
2023/07/10 04:11:00;;;;;;;2.45;0.95;;;;;;;16.75;71.82;101302.13;5090060;28;20020;-52
2023/07/10 04:13:27;;;;;;;2.40;0.93;;;;;;;16.60;72.32;101297.19;5094274;28;20103;-52
2023/07/10 04:16:00;;;;;;;1.60;0.70;;;;;;;16.64;72.97;101301.03;5093129;28;20043;-52
2023/07/10 04:18:37;;;;;;;2.38;0.70;;;;;;;16.44;73.46;101300.56;5093915;28;20272;-48
2023/07/10 04:21:06;;;;;;;0.95;0.70;;;;;;;16.54;73.26;101300.78;5094036;28;20051;-49
2023/07/10 04:23:33;;;;;;;3.42;0.90;;;;;;;16.21;74.51;101292.41;5076540;28;20142;-51
2023/07/10 04:25:59;;;;;;;2.30;0.73;;;;;;;16.21;74.87;101300.50;5093997;28;20326;-49
2023/07/10 04:28:26;;;;;;;2.22;1.00;;;;;;;16.21;74.94;101305.91;5093651;28;20104;-50
2023/07/10 04:30:53;;;;;;;3.38;1.13;;;;;;;16.04;75.68;101301.19;5080408;28;20020;-52
2023/07/10 04:33:21;;;;;;;2.47;1.23;;;;;;;16.12;75.57;101310.84;5073379;28;20386;-47
2023/07/10 04:35:55;;;;;;;2.92;1.10;;;;;;;15.92;76.74;101305.72;5073613;28;20481;-49
2023/07/10 04:38:27;;;;;;;2.95;1.17;;;;;;;15.87;77.34;101305.59;5076233;28;20482;-49
2023/07/10 04:41:05;;;;;;;2.72;1.67;;;;;;;15.84;77.96;101316.88;5093278;28;20050;-50
2023/07/10 04:43:33;;;;;;;1.20;0.95;;;;;;;15.81;77.97;101312.72;5093115;28;20211;-51
2023/07/10 04:46:05;;;;;;;2.97;1.10;;;;;;;15.64;78.73;101319.00;5075538;28;20032;-48
2023/07/10 04:48:32;;;;;;;4.30;1.00;;;;;;;15.62;78.98;101327.31;5092939;28;20103;-51
2023/07/10 04:51:03;;;;;;;4.07;1.17;;;;;;;15.58;79.30;101329.63;5093406;28;20110;-51
2023/07/10 04:53:31;;;;;;;2.00;0.95;;;;;;;15.56;79.60;101326.34;5093150;28;20567;-52
2023/07/10 04:55:57;;;;;;;2.90;1.00;;;;;;;15.53;79.92;101337.56;5092981;28;20027;-47
2023/07/10 04:58:24;;;;;;;3.38;0.82;;;;;;;15.42;80.37;101341.03;5093201;28;20028;-48
2023/07/10 05:00:58;;;;;;;3.55;1.02;;;;;;;15.49;79.80;101341.78;5092535;28;20085;-46
2023/07/10 05:03:25;;;;;;;1.42;0.75;;;;;;;15.47;79.67;101343.88;5092797;28;20032;-48
2023/07/10 05:05:56;;;;;;;2.25;0.98;;;;;;;15.27;80.72;101343.31;5093031;28;20397;-49
2023/07/10 05:08:27;;;;;;;2.03;0.60;;;;;;;15.23;80.73;101348.31;5092981;28;20081;-51
2023/07/10 05:10:54;;;;;;;0.68;0.57;;;;;;;15.18;80.81;101345.47;5092994;28;20028;-49
2023/07/10 05:13:28;;;;;;;1.92;0.65;;;;;;;15.23;80.69;101344.78;5086991;28;20028;-47
2023/07/10 05:15:57;;;;;;;2.13;0.55;;;;;;;15.20;80.70;101345.22;5092672;28;20032;-46
2023/07/10 05:18:25;;;;;;;0.75;0.70;;;;;;;15.12;81.42;101353.63;5093410;28;20023;-50
2023/07/10 05:20:52;;;;;;;1.52;0.68;;;;;;;15.08;81.83;101353.22;5092655;28;20039;-48
2023/07/10 05:23:18;;;;;;;1.00;0.85;;;;;;;14.99;81.92;101358.09;5080414;28;20055;-47
2023/07/10 05:26:08;;;;;;;3.50;0.80;;;;;;;15.15;81.60;101347.78;5084682;28;20047;-47
2023/07/10 05:28:35;;;;;;;1.02;0.50;;;;;;;15.14;81.03;101351.53;5084088;28;20028;-48
2023/07/10 05:31:03;;;;;;;1.58;0.80;;;;;;;15.03;81.79;101347.69;5054726;28;20029;-47
2023/07/10 05:33:30;;;;;;;0.88;0.63;;;;;;;15.20;81.33;101342.53;5080617;28;20035;-51
2023/07/10 05:35:59;;;;;;;1.30;0.73;;;;;;;15.17;81.40;101343.00;5092116;28;20028;-51
2023/07/10 05:38:29;;;;;;;0.82;0.55;;;;;;;15.05;81.30;101349.13;5092455;28;20458;-52
2023/07/10 05:40:55;;;;;;;1.27;0.60;;;;;;;15.15;81.13;101342.38;5082849;28;20036;-51
2023/07/10 05:43:22;;;;;;;1.10;0.82;;;;;;;15.13;80.91;101348.00;5071645;28;20028;-51
2023/07/10 05:45:50;;;;;;;2.92;1.08;;;;;;;15.24;80.67;101343.75;5072007;28;20037;-48
2023/07/10 05:48:16;;;;;;;0.68;0.50;;;;;;;15.07;81.11;101343.50;5071962;28;20024;-50
2023/07/10 05:50:47;;;;;;;1.38;0.70;;;;;;;15.09;81.18;101348.66;5072017;28;20028;-48
2023/07/10 05:53:17;;;;;;;3.97;0.77;;;;;;;15.22;80.74;101348.53;5074881;28;20085;-47
2023/07/10 05:55:48;;;;;;;1.67;0.70;;;;;;;14.98;81.76;101353.75;5087723;28;20450;-48
2023/07/10 05:58:15;;;;;;;1.73;0.80;;;;;;;15.02;81.47;101354.13;5081551;28;20113;-49
2023/07/10 06:00:42;;;;;;;0.82;0.73;;;;;;;15.01;81.50;101352.47;5092213;28;20551;-51
2023/07/10 06:03:09;;;;;;;0.75;0.40;;;;;;;15.13;81.19;101349.88;5086541;23;20048;-51
2023/07/10 06:05:36;;;;;;;2.50;0.70;;;;;;;14.99;81.58;101347.31;5071288;28;20031;-49
2023/07/10 06:08:02;;;;;;;1.17;0.65;;;;;;;14.98;81.83;101351.03;5071636;28;20055;-48
2023/07/10 06:10:29;;;;;;;1.33;0.82;;;;;;;15.04;81.50;101344.75;5071831;28;20099;-51
2023/07/10 06:12:55;;;;;;;0.95;0.57;;;;;;;14.93;81.72;101345.50;5071050;28;20056;-48
2023/07/10 06:15:21;;;;;;;1.33;0.50;;;;;;;14.77;82.62;101336.13;5060597;28;20069;-48
2023/07/10 06:17:50;;;;;;;2.15;0.63;;;;;;;14.78;82.46;101343.16;5051900;28;20051;-49
2023/07/10 06:20:16;;;;;;;2.65;0.80;;;;;;;14.61;83.50;101338.56;5051580;28;20039;-49
2023/07/10 06:22:43;;;;;;;3.38;0.70;;;;;;;14.55;83.85;101345.66;5051654;28;20025;-50
2023/07/10 06:25:10;;;;;;;1.33;0.70;;;;;;;14.61;83.62;101342.09;5051634;28;20072;-48
2023/07/10 06:27:36;;;;;;;1.27;0.63;;;;;;;14.57;83.95;101343.56;5051648;28;20028;-50
2023/07/10 06:30:03;;;;;;;1.30;0.80;;;;;;;14.50;84.30;101348.19;5051499;28;20033;-51
2023/07/10 06:32:30;;;;;;;1.30;0.70;;;;;;;14.41;84.79;101344.88;5062510;28;20111;-48
2023/07/10 06:34:57;;;;;;;0.98;0.80;;;;;;;14.42;84.52;101341.16;5071447;28;20029;-48
2023/07/10 06:37:23;;;;;;;4.15;1.13;;;;;;;14.47;84.70;101352.13;5071541;28;20104;-47
2023/07/10 06:40:09;;;;;;;1.80;1.00;;;;;;;14.53;84.90;101337.78;5070947;28;20028;-51
2023/07/10 06:42:36;;;;;;;2.03;1.20;;;;;;;14.42;85.12;101351.91;5071358;28;20386;-47
2023/07/10 06:45:04;;;;;;;1.95;0.90;;;;;;;14.36;85.98;101349.28;5071360;28;20028;-49
2023/07/10 06:47:31;;;;;;;1.45;1.10;;;;;;;14.35;86.06;101353.03;5071462;28;20025;-47
2023/07/10 06:49:59;;;;;;;2.67;1.30;;;;;;;14.36;86.23;101354.66;5071202;28;20035;-48
2023/07/10 06:52:26;;;;;;;2.20;1.15;;;;;;;14.38;85.95;101355.25;5055925;28;20025;-51
2023/07/10 06:54:54;;;;;;;1.38;0.98;;;;;;;14.30;86.61;101350.16;5063344;28;20429;-51
2023/07/10 06:57:21;;;;;;;0.75;0.73;;;;;;;14.43;85.94;101350.88;5071304;28;20020;-51
2023/07/10 06:59:47;;;;;;;2.22;0.93;;;;;;;14.49;85.51;101352.75;5071216;28;20024;-50
2023/07/10 07:02:13;;;;;;;1.90;1.00;;;;;;;14.60;84.63;101344.97;5070923;28;20083;-50
2023/07/10 07:04:41;;;;;;;3.50;1.10;;;;;;;14.52;85.04;101351.47;5071192;28;20090;-48
2023/07/10 07:07:08;;;;;;;4.75;1.15;;;;;;;14.57;85.04;101342.72;5071583;28;20474;-50
2023/07/10 07:09:35;;;;;;;1.60;0.77;;;;;;;14.46;85.05;101331.59;5071100;28;20389;-51
2023/07/10 07:12:01;;;;;;;2.33;0.90;;;;;;;14.38;85.27;101344.50;5070665;28;20021;-50
2023/07/10 07:14:27;;;;;;;1.65;0.80;;;;;;;14.47;84.88;101337.84;5071161;28;20029;-49
2023/07/10 07:16:54;;;;;;;1.42;0.88;;;;;;;14.36;85.37;101342.03;5070756;28;20020;-50
2023/07/10 07:19:20;;;;;;;1.75;0.90;;;;;;;14.34;85.36;101344.13;5071145;28;20421;-50
2023/07/10 07:21:47;;;;;;;1.50;0.85;;;;;;;14.27;85.44;101340.66;5070890;28;20017;-48
2023/07/10 07:24:13;;;;;;;1.60;0.90;;;;;;;14.28;85.78;101339.63;5070958;28;20078;-50
2023/07/10 07:26:39;;;;;;;3.28;1.05;;;;;;;14.29;85.03;101335.06;5070092;28;20479;-50
2023/07/10 07:29:05;;;;;;;1.40;0.82;;;;;;;14.30;84.70;101332.13;5070934;28;20120;-48
2023/07/10 07:31:33;;;;;;;1.50;0.95;;;;;;;14.22;85.55;101332.41;5070898;28;20078;-51
2023/07/10 07:33:59;;;;;;;2.28;1.00;;;;;;;14.11;86.41;101335.81;5070448;28;20032;-47
2023/07/10 07:36:25;;;;;;;3.05;1.00;;;;;;;14.10;86.09;101332.28;5070975;28;20032;-47
2023/07/10 07:38:52;;;;;;;1.95;1.10;;;;;;;14.12;86.21;101326.69;5070988;28;20016;-51
2023/07/10 07:41:18;;;;;;;0.93;0.88;;;;;;;14.07;86.72;101327.31;5070427;28;20467;-47
2023/07/10 07:43:44;;;;;;;3.47;1.35;;;;;;;14.12;86.81;101324.00;5070396;28;20064;-47
2023/07/10 07:46:10;;;;;;;1.27;1.00;;;;;;;13.96;87.75;101331.53;5070609;28;20113;-48
2023/07/10 07:48:36;;;;;;;2.15;1.10;;;;;;;13.94;87.59;101332.81;5070476;28;20021;-47
2023/07/10 07:51:07;;;;;;;1.33;0.77;;;;;;;14.07;87.04;101330.03;5069390;28;20456;-47
2023/07/10 07:53:35;;;;;;;1.00;0.82;;;;;;;14.05;86.85;101329.41;5054154;28;20493;-50
2023/07/10 07:56:02;;;;;;;2.17;1.20;;;;;;;14.05;87.01;101323.19;5061727;28;20540;-47
2023/07/10 07:58:28;;;;;;;1.77;1.15;;;;;;;13.91;87.88;101320.59;5073862;28;20024;-47
2023/07/10 08:00:55;;;;;;;2.03;0.90;;;;;;;14.00;87.51;101321.16;5073598;28;20524;-47
2023/07/10 08:03:21;;;;;;;2.63;1.27;;;;;;;14.05;87.01;101318.66;5073819;28;20048;-51
2023/07/10 08:05:47;;;;;;;2.33;0.82;;;;;;;14.06;87.36;101324.84;5060213;28;20502;-49
2023/07/10 08:08:14;;;;;;;1.25;0.80;;;;;;;13.96;87.64;101325.31;5053984;28;20048;-46
2023/07/10 08:10:43;;;;;;;2.00;1.05;;;;;;;13.92;87.91;101319.53;5052723;28;20383;-50
2023/07/10 08:13:11;;;;;;;3.00;1.23;;;;;;;13.82;88.46;101323.75;5053677;28;20031;-50
2023/07/10 08:15:38;;;;;;;2.55;1.27;;;;;;;13.87;87.92;101319.34;5053858;28;20032;-47
2023/07/10 08:18:05;;;;;;;1.77;0.90;;;;;;;13.77;88.56;101328.94;5068046;28;20446;-48
2023/07/10 08:20:31;;;;;;;2.80;0.90;;;;;;;13.90;87.92;101323.50;5073986;28;20414;-47
2023/07/10 08:22:58;;;;;;;3.28;1.13;;;;;;;13.65;89.64;101318.84;5073759;28;20040;-49
2023/07/10 08:25:25;;;;;;;2.97;1.02;;;;;;;13.85;88.73;101304.50;5073929;28;20032;-51
2023/07/10 08:27:51;;;;;;;2.03;0.70;;;;;;;13.87;89.02;101302.41;5073651;28;20028;-47
2023/07/10 08:30:17;;;;;;;1.80;1.05;;;;;;;13.89;89.15;101308.41;5073657;28;20028;-49
2023/07/10 08:32:44;;;;;;;1.50;0.80;;;;;;;13.94;88.85;101295.13;5073119;28;20056;-51
2023/07/10 08:35:10;;;;;;;5.20;1.10;;;;;;;13.91;88.65;101304.44;5073362;28;20043;-47
2023/07/10 08:37:37;;;;;;;1.80;0.90;;;;;;;13.98;88.71;101299.81;5073661;28;20024;-46
2023/07/10 08:40:12;;;;;;;3.13;1.10;;;;;;;13.93;88.47;101299.66;5073461;28;20520;-50
2023/07/10 08:42:39;;;;;;;2.78;1.05;;;;;;;14.00;88.04;101302.31;5073363;28;20078;-50
2023/07/10 08:45:11;;;;;;;3.45;0.95;;;;;;;14.06;88.07;101292.56;5071888;28;20028;-51
2023/07/10 08:47:48;;;;;;;2.90;1.10;;;;;;;14.08;87.50;101295.84;5073436;28;20016;-46
2023/07/10 08:50:23;;;;;;;3.60;1.10;;;;;;;14.22;86.67;101292.03;5073372;28;20075;-49
2023/07/10 08:53:24;;;;;;;4.60;1.13;;;;;;;14.28;86.89;101296.53;5054389;28;20561;-49
2023/07/10 08:56:09;;;;;;;1.40;0.80;;;;;;;14.30;86.32;101296.31;5051953;28;20033;-50
2023/07/10 08:58:38;;;;;;;4.43;1.17;;;;;;;14.21;86.82;101296.59;5053275;28;20112;-48
2023/07/10 09:01:15;;;;;;;2.60;1.10;;;;;;;14.25;86.66;101299.66;5052138;28;20057;-51
2023/07/10 09:03:47;;;;;;;2.08;1.00;;;;;;;14.20;86.70;101304.88;5059650;28;20053;-48
2023/07/10 09:06:24;;;;;;;3.00;1.13;;;;;;;13.89;87.97;101303.84;5073055;28;20134;-51
2023/07/10 09:08:53;;;;;;;3.50;0.98;;;;;;;14.11;87.29;101298.94;5073163;28;20031;-47
2023/07/10 09:11:21;;;;;;;3.10;1.10;;;;;;;14.08;87.02;101301.22;5072731;28;20032;-48
2023/07/10 09:13:55;;;;;;;1.27;0.88;;;;;;;14.13;86.53;101302.22;5072963;28;20355;-51
2023/07/10 09:16:22;;;;;;;3.10;1.10;;;;;;;14.14;86.78;101301.19;5073114;28;20096;-49
2023/07/10 09:18:57;;;;;;;1.25;0.80;;;;;;;14.19;86.57;101300.53;5073010;28;20030;-48
2023/07/10 09:21:29;;;;;;;1.08;0.70;;;;;;;14.27;86.04;101302.97;5072558;28;20032;-47
2023/07/10 09:23:56;;;;;;;1.85;0.90;;;;;;;14.25;86.04;101302.34;5072515;28;20056;-48
2023/07/10 09:26:28;;;;;;;4.28;1.17;;;;;;;14.06;86.71;101308.72;5072224;28;20056;-48
2023/07/10 09:29:15;;;;;;;2.25;1.25;;;;;;;14.21;86.65;101298.44;5070177;28;20111;-49
2023/07/10 09:31:56;;;;;;;5.18;1.13;;;;;;;14.15;86.50;101308.19;5053187;28;20170;-46
2023/07/10 09:34:31;;;;;;;2.58;1.10;;;;;;;14.29;85.97;101305.44;5052697;28;20025;-49
2023/07/10 09:36:58;;;;;;;2.80;1.02;;;;;;;14.16;86.19;101304.50;5065885;28;20513;-45
2023/07/10 09:39:30;;;;;;;4.65;1.10;;;;;;;14.14;86.22;101303.88;5072205;28;20051;-52
2023/07/10 09:42:01;;;;;;;4.90;1.25;;;;;;;14.21;85.60;101303.81;5062799;28;20475;-46
2023/07/10 09:44:36;;;;;;;4.45;1.63;;;;;;;13.97;86.81;101303.56;5068972;28;20028;-46
2023/07/10 09:47:11;;;;;;;2.90;1.20;;;;;;;14.15;86.21;101308.19;5072248;28;20525;-48
2023/07/10 09:49:51;;;;;;;4.88;1.17;;;;;;;14.09;86.39;101310.94;5072127;28;20378;-45
2023/07/10 09:52:23;;;;;;;2.60;0.90;;;;;;;14.15;85.97;101302.00;5071568;28;20033;-45
2023/07/10 09:54:57;;;;;;;1.88;0.93;;;;;;;14.11;86.14;101295.41;5053603;28;20075;-46
2023/07/10 09:57:23;;;;;;;4.05;1.40;;;;;;;14.15;85.93;101293.91;5051791;28;20025;-45
2023/07/10 09:59:52;;;;;;;4.35;1.13;;;;;;;14.24;86.08;101290.75;5052005;28;20029;-46
2023/07/10 10:02:21;;;;;;;2.50;1.05;;;;;;;14.16;85.75;101292.91;5051327;28;20078;-47
2023/07/10 10:05:16;;;;;;;4.38;1.48;;;;;;;14.27;85.52;101292.19;5059641;28;20086;-48
2023/07/10 10:07:46;;;;;;;4.57;1.38;;;;;;;14.15;85.73;101292.06;5071787;28;20032;-46
2023/07/10 10:10:28;;;;;;;3.40;1.38;;;;;;;14.28;85.59;101293.84;5071404;28;20026;-47
2023/07/10 10:13:14;;;;;;;2.75;1.10;;;;;;;14.10;86.55;101297.28;5071591;28;20494;-49
2023/07/10 10:16:03;;;;;;;5.18;1.65;;;;;;;14.25;85.91;101294.25;5072093;28;20126;-46
2023/07/10 10:18:45;;;;;;;4.55;1.00;;;;;;;14.25;86.21;101296.97;5071723;28;20115;-49
2023/07/10 10:21:14;;;;;;;2.83;1.10;;;;;;;14.03;87.14;101301.06;5071858;28;20032;-48
2023/07/10 10:23:44;;;;;;;3.60;1.02;;;;;;;14.06;86.80;101292.56;5071515;28;20093;-47
2023/07/10 10:26:36;;;;;;;2.05;1.13;;;;;;;14.09;86.96;101294.78;5071876;28;20031;-47
2023/07/10 10:29:29;;;;;;;1.05;0.85;;;;;;;14.33;85.87;101287.81;5040275;28;20391;-49
2023/07/10 10:32:07;;;;;;;5.22;1.10;;;;;;;14.19;85.63;101289.75;5065756;28;20020;-46
2023/07/10 10:34:45;;;;;;;6.50;1.38;;;;;;;14.17;86.58;101289.97;5051336;28;20453;-47
2023/07/10 10:37:33;;;;;;;4.22;1.02;;;;;;;14.11;86.27;101295.41;5050929;28;20143;-45
2023/07/10 10:40:11;;;;;;;5.07;1.30;;;;;;;14.25;85.76;101280.81;5051240;28;20450;-49
2023/07/10 10:43:04;;;;;;;1.73;0.90;;;;;;;14.25;85.21;101281.63;5051147;28;20022;-48
2023/07/10 10:46:26;;;;;;;4.50;0.88;;;;;;;14.13;85.91;101283.38;5051420;28;20098;-49
2023/07/10 10:49:10;;;;;;;2.08;1.10;;;;;;;14.35;84.88;101286.53;4989897;28;20066;-49
2023/07/10 10:51:54;;;;;;;2.80;1.20;;;;;;;14.17;85.57;101284.59;5044477;28;20048;-48
2023/07/10 10:54:46;;;;;;;1.58;0.88;;;;;;;14.33;84.68;101280.53;5051204;28;20098;-46
2023/07/10 10:57:12;;;;;;;4.88;1.63;;;;;;;14.24;85.11;101279.16;5050865;28;20029;-47
2023/07/10 11:00:26;;;;;;;5.07;1.60;;;;;;;14.25;85.29;101286.19;5051365;28;20074;-46
2023/07/10 11:03:25;;;;;;;6.80;1.30;;;;;;;14.12;86.19;101289.00;5050896;28;20040;-46
2023/07/10 11:05:55;;;;;;;3.75;1.20;;;;;;;14.13;85.60;101282.56;5053229;28;20386;-47
2023/07/10 11:08:23;;;;;;;4.22;1.13;;;;;;;14.18;85.37;101286.25;5071267;28;20020;-46
2023/07/10 11:10:51;;;;;;;2.80;1.30;;;;;;;14.29;84.60;101287.41;5071173;28;20096;-46
2023/07/10 11:13:20;;;;;;;6.65;1.75;;;;;;;14.32;84.42;101286.94;5070907;28;20024;-46
2023/07/10 11:15:46;;;;;;;4.45;0.95;;;;;;;14.45;83.77;101286.03;5071180;28;20024;-46
2023/07/10 11:18:15;;;;;;;5.93;1.00;;;;;;;14.17;84.83;101289.97;5070703;28;20024;-48
2023/07/10 11:20:42;;;;;;;3.10;1.35;;;;;;;14.16;85.32;101282.13;5070877;28;20020;-46
2023/07/10 11:23:35;;;;;;;5.45;1.27;;;;;;;14.08;85.62;101301.22;5070152;28;20035;-45
2023/07/10 11:26:20;;;;;;;4.30;1.35;;;;;;;13.74;86.88;101301.44;5071557;28;20158;-48
2023/07/10 11:28:51;;;;;;;2.42;1.10;;;;;;;13.87;86.33;101294.31;5054118;28;20032;-47
2023/07/10 11:31:30;;;;;;;4.68;0.90;;;;;;;14.05;86.07;101297.13;5053948;28;20017;-48
2023/07/10 11:34:04;;;;;;;3.13;1.08;;;;;;;14.12;85.57;101305.16;5054552;28;20021;-46
2023/07/10 11:36:33;;;;;;;3.30;0.93;;;;;;;14.13;85.60;101296.03;5054823;28;20059;-49
2023/07/10 11:39:06;;;;;;;5.80;1.15;;;;;;;13.81;86.78;101306.78;5054354;28;20056;-45